sensor_id;sensor_type;location;lat;lon;timestamp;P1;durP1;ratioP1;P2;durP2;ratioP2
17763;SDS011;22245;52.832;13.816;2022-09-09T00:00:27;7.50;;;6.22;;
17763;SDS011;22245;52.832;13.816;2022-09-09T00:03:59;11.50;;;6.22;;
17763;SDS011;22245;52.832;13.816;2022-09-09T00:07:24;7.40;;;5.68;;
17763;SDS011;22245;52.832;13.816;2022-09-09T00:10:58;8.30;;;5.80;;
17763;SDS011;22245;52.832;13.816;2022-09-09T00:14:29;6.85;;;6.15;;
17763;SDS011;22245;52.832;13.816;2022-09-09T00:18:00;7.88;;;5.88;;
17763;SDS011;22245;52.832;13.816;2022-09-09T00:21:32;10.77;;;6.60;;
17763;SDS011;22245;52.832;13.816;2022-09-09T00:24:57;8.50;;;6.65;;
17763;SDS011;22245;52.832;13.816;2022-09-09T00:28:30;7.45;;;6.40;;
17763;SDS011;22245;52.832;13.816;2022-09-09T00:31:57;9.77;;;7.28;;
17763;SDS011;22245;52.832;13.816;2022-09-09T00:35:27;8.38;;;7.10;;
17763;SDS011;22245;52.832;13.816;2022-09-09T00:38:55;8.63;;;6.85;;
17763;SDS011;22245;52.832;13.816;2022-09-09T00:42:20;10.10;;;7.05;;
17763;SDS011;22245;52.832;13.816;2022-09-09T00:45:51;10.77;;;8.02;;
17763;SDS011;22245;52.832;13.816;2022-09-09T00:49:37;11.75;;;8.45;;
17763;SDS011;22245;52.832;13.816;2022-09-09T00:53:14;12.27;;;8.60;;
17763;SDS011;22245;52.832;13.816;2022-09-09T00:56:53;14.15;;;9.50;;
17763;SDS011;22245;52.832;13.816;2022-09-09T01:00:25;12.15;;;8.55;;
17763;SDS011;22245;52.832;13.816;2022-09-09T01:03:50;12.52;;;10.00;;
17763;SDS011;22245;52.832;13.816;2022-09-09T01:07:16;13.07;;;9.90;;
17763;SDS011;22245;52.832;13.816;2022-09-09T01:10:50;13.02;;;9.60;;
17763;SDS011;22245;52.832;13.816;2022-09-09T01:14:24;12.73;;;9.32;;
17763;SDS011;22245;52.832;13.816;2022-09-09T01:17:53;13.55;;;10.00;;
17763;SDS011;22245;52.832;13.816;2022-09-09T01:21:26;14.82;;;10.40;;
17763;SDS011;22245;52.832;13.816;2022-09-09T01:25:05;14.93;;;10.55;;
17763;SDS011;22245;52.832;13.816;2022-09-09T01:28:50;15.05;;;11.15;;
17763;SDS011;22245;52.832;13.816;2022-09-09T01:36:08;16.77;;;11.90;;
17763;SDS011;22245;52.832;13.816;2022-09-09T01:39:41;20.15;;;13.15;;
17763;SDS011;22245;52.832;13.816;2022-09-09T01:43:08;21.50;;;12.63;;
17763;SDS011;22245;52.832;13.816;2022-09-09T01:46:32;21.85;;;12.98;;
17763;SDS011;22245;52.832;13.816;2022-09-09T01:49:54;21.13;;;12.82;;
17763;SDS011;22245;52.832;13.816;2022-09-09T01:53:19;20.67;;;13.25;;
17763;SDS011;22245;52.832;13.816;2022-09-09T01:56:47;21.45;;;13.13;;
17763;SDS011;22245;52.832;13.816;2022-09-09T02:00:23;21.08;;;13.48;;
17763;SDS011;22245;52.832;13.816;2022-09-09T02:03:52;17.80;;;12.23;;
17763;SDS011;22245;52.832;13.816;2022-09-09T02:07:24;18.63;;;12.02;;
17763;SDS011;22245;52.832;13.816;2022-09-09T02:10:56;18.48;;;11.48;;
17763;SDS011;22245;52.832;13.816;2022-09-09T02:14:30;19.50;;;12.23;;
17763;SDS011;22245;52.832;13.816;2022-09-09T02:17:57;18.35;;;11.43;;
17763;SDS011;22245;52.832;13.816;2022-09-09T02:21:23;17.52;;;10.80;;
17763;SDS011;22245;52.832;13.816;2022-09-09T02:24:49;17.70;;;11.35;;
17763;SDS011;22245;52.832;13.816;2022-09-09T02:28:17;20.13;;;12.15;;
17763;SDS011;22245;52.832;13.816;2022-09-09T02:31:41;18.85;;;11.80;;
17763;SDS011;22245;52.832;13.816;2022-09-09T02:35:10;18.83;;;11.93;;
17763;SDS011;22245;52.832;13.816;2022-09-09T02:38:40;18.88;;;11.48;;
17763;SDS011;22245;52.832;13.816;2022-09-09T02:42:20;19.02;;;12.05;;
17763;SDS011;22245;52.832;13.816;2022-09-09T02:45:46;17.63;;;12.05;;
17763;SDS011;22245;52.832;13.816;2022-09-09T02:49:22;19.33;;;12.43;;
17763;SDS011;22245;52.832;13.816;2022-09-09T02:52:54;18.08;;;12.30;;
17763;SDS011;22245;52.832;13.816;2022-09-09T02:56:26;19.33;;;12.63;;
17763;SDS011;22245;52.832;13.816;2022-09-09T02:59:51;19.35;;;13.25;;
17763;SDS011;22245;52.832;13.816;2022-09-09T03:03:13;18.38;;;12.10;;
17763;SDS011;22245;52.832;13.816;2022-09-09T03:06:36;20.75;;;13.00;;
17763;SDS011;22245;52.832;13.816;2022-09-09T03:10:08;17.98;;;12.02;;
17763;SDS011;22245;52.832;13.816;2022-09-09T03:13:32;18.30;;;12.48;;
17763;SDS011;22245;52.832;13.816;2022-09-09T03:16:54;17.33;;;12.25;;
17763;SDS011;22245;52.832;13.816;2022-09-09T03:20:17;18.00;;;11.52;;
17763;SDS011;22245;52.832;13.816;2022-09-09T03:23:39;21.33;;;12.60;;
17763;SDS011;22245;52.832;13.816;2022-09-09T03:27:00;17.70;;;11.50;;
17763;SDS011;22245;52.832;13.816;2022-09-09T03:30:25;16.83;;;11.52;;
17763;SDS011;22245;52.832;13.816;2022-09-09T03:33:49;17.45;;;11.80;;
17763;SDS011;22245;52.832;13.816;2022-09-09T03:37:12;17.17;;;11.73;;
17763;SDS011;22245;52.832;13.816;2022-09-09T03:40:34;18.48;;;12.13;;
17763;SDS011;22245;52.832;13.816;2022-09-09T03:43:56;19.25;;;12.00;;
17763;SDS011;22245;52.832;13.816;2022-09-09T03:47:21;18.65;;;12.75;;
17763;SDS011;22245;52.832;13.816;2022-09-09T03:50:48;19.73;;;13.10;;
17763;SDS011;22245;52.832;13.816;2022-09-09T03:54:11;19.58;;;12.82;;
17763;SDS011;22245;52.832;13.816;2022-09-09T03:57:33;17.73;;;12.07;;
17763;SDS011;22245;52.832;13.816;2022-09-09T04:00:58;20.33;;;12.50;;
17763;SDS011;22245;52.832;13.816;2022-09-09T04:04:23;18.38;;;11.75;;
17763;SDS011;22245;52.832;13.816;2022-09-09T04:07:44;20.35;;;12.48;;
17763;SDS011;22245;52.832;13.816;2022-09-09T04:11:06;18.95;;;12.60;;
17763;SDS011;22245;52.832;13.816;2022-09-09T04:14:30;16.63;;;11.77;;
17763;SDS011;22245;52.832;13.816;2022-09-09T04:17:52;20.52;;;12.82;;
17763;SDS011;22245;52.832;13.816;2022-09-09T04:21:15;17.17;;;11.40;;
17763;SDS011;22245;52.832;13.816;2022-09-09T04:24:38;17.35;;;11.25;;
17763;SDS011;22245;52.832;13.816;2022-09-09T04:28:03;17.20;;;11.10;;
17763;SDS011;22245;52.832;13.816;2022-09-09T04:31:26;14.45;;;10.55;;
17763;SDS011;22245;52.832;13.816;2022-09-09T04:34:49;16.02;;;11.10;;
17763;SDS011;22245;52.832;13.816;2022-09-09T04:38:12;15.25;;;10.65;;
17763;SDS011;22245;52.832;13.816;2022-09-09T04:41:35;16.13;;;10.45;;
17763;SDS011;22245;52.832;13.816;2022-09-09T04:44:58;15.50;;;10.35;;
17763;SDS011;22245;52.832;13.816;2022-09-09T04:48:20;20.35;;;11.68;;
17763;SDS011;22245;52.832;13.816;2022-09-09T04:51:42;16.58;;;11.02;;
17763;SDS011;22245;52.832;13.816;2022-09-09T04:55:07;18.00;;;11.95;;
17763;SDS011;22245;52.832;13.816;2022-09-09T04:58:30;16.05;;;10.27;;
17763;SDS011;22245;52.832;13.816;2022-09-09T05:01:52;19.48;;;11.25;;
17763;SDS011;22245;52.832;13.816;2022-09-09T05:05:15;14.98;;;10.13;;
17763;SDS011;22245;52.832;13.816;2022-09-09T05:08:40;14.75;;;10.35;;
17763;SDS011;22245;52.832;13.816;2022-09-09T05:12:05;15.80;;;10.02;;
17763;SDS011;22245;52.832;13.816;2022-09-09T05:15:28;16.67;;;10.88;;
17763;SDS011;22245;52.832;13.816;2022-09-09T05:18:50;15.00;;;10.90;;
17763;SDS011;22245;52.832;13.816;2022-09-09T05:22:13;18.25;;;10.38;;
17763;SDS011;22245;52.832;13.816;2022-09-09T05:25:41;15.00;;;10.05;;
17763;SDS011;22245;52.832;13.816;2022-09-09T05:29:04;13.75;;;9.85;;
17763;SDS011;22245;52.832;13.816;2022-09-09T05:32:26;14.43;;;9.80;;
17763;SDS011;22245;52.832;13.816;2022-09-09T05:35:48;13.38;;;9.00;;
17763;SDS011;22245;52.832;13.816;2022-09-09T05:39:17;12.50;;;9.38;;
17763;SDS011;22245;52.832;13.816;2022-09-09T05:42:39;14.05;;;9.82;;
17763;SDS011;22245;52.832;13.816;2022-09-09T05:46:03;15.77;;;9.38;;
17763;SDS011;22245;52.832;13.816;2022-09-09T05:49:26;17.52;;;10.18;;
17763;SDS011;22245;52.832;13.816;2022-09-09T05:52:48;12.88;;;8.98;;
17763;SDS011;22245;52.832;13.816;2022-09-09T05:56:11;12.65;;;8.55;;
17763;SDS011;22245;52.832;13.816;2022-09-09T05:59:35;11.93;;;9.13;;
17763;SDS011;22245;52.832;13.816;2022-09-09T06:02:59;14.80;;;8.85;;
17763;SDS011;22245;52.832;13.816;2022-09-09T06:06:21;11.90;;;8.02;;
17763;SDS011;22245;52.832;13.816;2022-09-09T06:09:44;10.73;;;8.00;;
17763;SDS011;22245;52.832;13.816;2022-09-09T06:13:06;10.82;;;8.45;;
17763;SDS011;22245;52.832;13.816;2022-09-09T06:16:28;12.93;;;8.60;;
17763;SDS011;22245;52.832;13.816;2022-09-09T06:19:54;10.70;;;7.35;;
17763;SDS011;22245;52.832;13.816;2022-09-09T06:23:16;10.63;;;7.63;;
17763;SDS011;22245;52.832;13.816;2022-09-09T06:26:39;11.82;;;7.15;;
17763;SDS011;22245;52.832;13.816;2022-09-09T06:30:05;11.73;;;7.28;;
17763;SDS011;22245;52.832;13.816;2022-09-09T06:33:30;11.13;;;7.50;;
17763;SDS011;22245;52.832;13.816;2022-09-09T06:36:56;9.23;;;6.57;;
17763;SDS011;22245;52.832;13.816;2022-09-09T06:40:25;7.00;;;5.72;;
17763;SDS011;22245;52.832;13.816;2022-09-09T06:43:47;7.65;;;6.13;;
17763;SDS011;22245;52.832;13.816;2022-09-09T06:47:09;7.38;;;5.85;;
17763;SDS011;22245;52.832;13.816;2022-09-09T06:50:33;8.25;;;6.32;;
17763;SDS011;22245;52.832;13.816;2022-09-09T06:53:56;7.25;;;5.93;;
17763;SDS011;22245;52.832;13.816;2022-09-09T06:57:19;9.02;;;6.43;;
17763;SDS011;22245;52.832;13.816;2022-09-09T07:01:03;7.63;;;6.00;;
17763;SDS011;22245;52.832;13.816;2022-09-09T07:04:26;9.65;;;6.75;;
17763;SDS011;22245;52.832;13.816;2022-09-09T07:07:50;9.27;;;6.63;;
17763;SDS011;22245;52.832;13.816;2022-09-09T07:11:14;9.18;;;6.20;;
17763;SDS011;22245;52.832;13.816;2022-09-09T07:14:36;8.05;;;6.28;;
17763;SDS011;22245;52.832;13.816;2022-09-09T07:18:01;8.82;;;6.57;;
17763;SDS011;22245;52.832;13.816;2022-09-09T07:21:24;7.25;;;5.00;;
17763;SDS011;22245;52.832;13.816;2022-09-09T07:24:47;6.45;;;5.18;;
17763;SDS011;22245;52.832;13.816;2022-09-09T07:28:10;8.65;;;4.50;;
17763;SDS011;22245;52.832;13.816;2022-09-09T07:31:33;7.38;;;4.47;;
17763;SDS011;22245;52.832;13.816;2022-09-09T07:35:00;7.70;;;4.10;;
17763;SDS011;22245;52.832;13.816;2022-09-09T07:38:22;5.55;;;3.75;;
17763;SDS011;22245;52.832;13.816;2022-09-09T07:41:45;5.65;;;3.70;;
17763;SDS011;22245;52.832;13.816;2022-09-09T07:45:13;4.93;;;3.30;;
17763;SDS011;22245;52.832;13.816;2022-09-09T07:48:35;4.97;;;3.10;;
17763;SDS011;22245;52.832;13.816;2022-09-09T07:51:57;7.93;;;3.03;;
17763;SDS011;22245;52.832;13.816;2022-09-09T07:55:20;4.05;;;2.92;;
17763;SDS011;22245;52.832;13.816;2022-09-09T07:58:46;6.38;;;2.95;;
17763;SDS011;22245;52.832;13.816;2022-09-09T08:02:10;5.60;;;3.80;;
17763;SDS011;22245;52.832;13.816;2022-09-09T08:05:32;6.28;;;3.25;;
17763;SDS011;22245;52.832;13.816;2022-09-09T08:08:54;8.52;;;3.63;;
17763;SDS011;22245;52.832;13.816;2022-09-09T08:12:16;6.72;;;3.55;;
17763;SDS011;22245;52.832;13.816;2022-09-09T08:15:38;2.88;;;2.40;;
17763;SDS011;22245;52.832;13.816;2022-09-09T08:19:03;4.05;;;2.42;;
17763;SDS011;22245;52.832;13.816;2022-09-09T08:22:25;12.90;;;3.22;;
17763;SDS011;22245;52.832;13.816;2022-09-09T08:25:48;5.40;;;3.22;;
17763;SDS011;22245;52.832;13.816;2022-09-09T08:29:11;6.55;;;2.85;;
17763;SDS011;22245;52.832;13.816;2022-09-09T08:32:34;6.10;;;2.85;;
17763;SDS011;22245;52.832;13.816;2022-09-09T08:35:57;5.13;;;2.42;;
17763;SDS011;22245;52.832;13.816;2022-09-09T08:39:19;5.05;;;2.50;;
17763;SDS011;22245;52.832;13.816;2022-09-09T08:42:43;4.53;;;2.40;;
17763;SDS011;22245;52.832;13.816;2022-09-09T08:46:11;8.02;;;2.50;;
17763;SDS011;22245;52.832;13.816;2022-09-09T08:49:51;5.40;;;2.50;;
17763;SDS011;22245;52.832;13.816;2022-09-09T08:53:26;3.20;;;2.33;;
17763;SDS011;22245;52.832;13.816;2022-09-09T08:56:52;3.72;;;2.45;;
17763;SDS011;22245;52.832;13.816;2022-09-09T09:00:14;5.10;;;2.53;;
17763;SDS011;22245;52.832;13.816;2022-09-09T09:03:38;5.00;;;2.20;;
17763;SDS011;22245;52.832;13.816;2022-09-09T09:07:08;5.45;;;2.00;;
17763;SDS011;22245;52.832;13.816;2022-09-09T09:10:45;3.03;;;2.00;;
17763;SDS011;22245;52.832;13.816;2022-09-09T09:14:15;4.32;;;2.20;;
17763;SDS011;22245;52.832;13.816;2022-09-09T09:17:44;5.68;;;2.20;;
17763;SDS011;22245;52.832;13.816;2022-09-09T09:21:08;4.57;;;2.33;;
17763;SDS011;22245;52.832;13.816;2022-09-09T09:24:36;5.05;;;2.45;;
17763;SDS011;22245;52.832;13.816;2022-09-09T09:28:12;3.38;;;1.98;;
17763;SDS011;22245;52.832;13.816;2022-09-09T09:31:42;6.25;;;2.10;;
17763;SDS011;22245;52.832;13.816;2022-09-09T09:35:09;6.32;;;2.38;;
17763;SDS011;22245;52.832;13.816;2022-09-09T09:38:35;4.55;;;2.00;;
17763;SDS011;22245;52.832;13.816;2022-09-09T09:42:18;4.35;;;2.15;;
17763;SDS011;22245;52.832;13.816;2022-09-09T09:45:46;5.78;;;2.20;;
17763;SDS011;22245;52.832;13.816;2022-09-09T09:49:28;5.07;;;2.10;;
17763;SDS011;22245;52.832;13.816;2022-09-09T09:52:54;5.28;;;1.88;;
17763;SDS011;22245;52.832;13.816;2022-09-09T09:56:18;5.05;;;2.00;;
17763;SDS011;22245;52.832;13.816;2022-09-09T09:59:48;3.47;;;1.83;;
17763;SDS011;22245;52.832;13.816;2022-09-09T10:03:25;3.10;;;1.70;;
17763;SDS011;22245;52.832;13.816;2022-09-09T10:06:51;3.45;;;1.52;;
17763;SDS011;22245;52.832;13.816;2022-09-09T10:10:14;4.63;;;1.88;;
17763;SDS011;22245;52.832;13.816;2022-09-09T10:13:42;4.45;;;1.70;;
17763;SDS011;22245;52.832;13.816;2022-09-09T10:17:14;6.47;;;1.80;;
17763;SDS011;22245;52.832;13.816;2022-09-09T10:20:51;5.30;;;1.98;;
17763;SDS011;22245;52.832;13.816;2022-09-09T10:24:28;4.95;;;1.70;;
17763;SDS011;22245;52.832;13.816;2022-09-09T10:28:10;2.35;;;1.45;;
17763;SDS011;22245;52.832;13.816;2022-09-09T10:31:56;3.55;;;1.70;;
17763;SDS011;22245;52.832;13.816;2022-09-09T10:35:29;4.40;;;1.60;;
17763;SDS011;22245;52.832;13.816;2022-09-09T10:38:55;4.60;;;1.80;;
17763;SDS011;22245;52.832;13.816;2022-09-09T10:42:21;1.98;;;1.67;;
17763;SDS011;22245;52.832;13.816;2022-09-09T10:45:54;4.43;;;1.95;;
17763;SDS011;22245;52.832;13.816;2022-09-09T10:49:27;4.38;;;1.42;;
17763;SDS011;22245;52.832;13.816;2022-09-09T10:53:02;2.20;;;1.58;;
17763;SDS011;22245;52.832;13.816;2022-09-09T10:56:36;4.95;;;1.60;;
17763;SDS011;22245;52.832;13.816;2022-09-09T11:00:01;6.65;;;1.67;;
17763;SDS011;22245;52.832;13.816;2022-09-09T11:03:26;3.08;;;1.33;;
17763;SDS011;22245;52.832;13.816;2022-09-09T11:06:52;5.53;;;1.50;;
17763;SDS011;22245;52.832;13.816;2022-09-09T11:10:18;6.57;;;1.42;;
17763;SDS011;22245;52.832;13.816;2022-09-09T11:13:48;5.45;;;1.58;;
17763;SDS011;22245;52.832;13.816;2022-09-09T11:17:16;4.95;;;1.67;;
17763;SDS011;22245;52.832;13.816;2022-09-09T11:20:42;3.15;;;1.50;;
17763;SDS011;22245;52.832;13.816;2022-09-09T11:24:06;4.70;;;1.73;;
17763;SDS011;22245;52.832;13.816;2022-09-09T11:27:36;6.93;;;1.77;;
17763;SDS011;22245;52.832;13.816;2022-09-09T11:31:15;5.20;;;1.65;;
17763;SDS011;22245;52.832;13.816;2022-09-09T11:34:50;2.05;;;1.40;;
17763;SDS011;22245;52.832;13.816;2022-09-09T11:38:21;3.70;;;1.77;;
17763;SDS011;22245;52.832;13.816;2022-09-09T11:41:48;4.80;;;1.40;;
17763;SDS011;22245;52.832;13.816;2022-09-09T11:45:10;2.30;;;1.20;;
17763;SDS011;22245;52.832;13.816;2022-09-09T11:48:42;2.03;;;1.27;;
17763;SDS011;22245;52.832;13.816;2022-09-09T11:52:10;4.97;;;1.50;;
17763;SDS011;22245;52.832;13.816;2022-09-09T11:55:41;3.97;;;1.48;;
17763;SDS011;22245;52.832;13.816;2022-09-09T11:59:05;5.05;;;1.52;;
17763;SDS011;22245;52.832;13.816;2022-09-09T12:02:28;3.65;;;1.50;;
17763;SDS011;22245;52.832;13.816;2022-09-09T12:05:52;6.18;;;1.42;;
17763;SDS011;22245;52.832;13.816;2022-09-09T12:09:20;3.67;;;1.48;;
17763;SDS011;22245;52.832;13.816;2022-09-09T12:12:46;2.47;;;1.58;;
17763;SDS011;22245;52.832;13.816;2022-09-09T12:20:00;3.83;;;1.60;;
17763;SDS011;22245;52.832;13.816;2022-09-09T12:23:31;2.60;;;1.48;;
17763;SDS011;22245;52.832;13.816;2022-09-09T12:27:00;2.85;;;1.30;;
17763;SDS011;22245;52.832;13.816;2022-09-09T12:30:29;3.47;;;1.40;;
17763;SDS011;22245;52.832;13.816;2022-09-09T12:34:02;3.42;;;1.40;;
17763;SDS011;22245;52.832;13.816;2022-09-09T12:37:32;5.38;;;1.27;;
17763;SDS011;22245;52.832;13.816;2022-09-09T12:40:58;2.95;;;1.20;;
17763;SDS011;22245;52.832;13.816;2022-09-09T12:44:20;3.08;;;1.48;;
17763;SDS011;22245;52.832;13.816;2022-09-09T12:47:44;2.33;;;1.27;;
17763;SDS011;22245;52.832;13.816;2022-09-09T12:51:16;3.67;;;1.13;;
17763;SDS011;22245;52.832;13.816;2022-09-09T12:54:42;3.50;;;1.40;;
17763;SDS011;22245;52.832;13.816;2022-09-09T12:58:11;2.40;;;1.05;;
17763;SDS011;22245;52.832;13.816;2022-09-09T13:01:36;2.72;;;1.42;;
17763;SDS011;22245;52.832;13.816;2022-09-09T13:05:05;4.60;;;1.50;;
17763;SDS011;22245;52.832;13.816;2022-09-09T13:08:29;3.25;;;1.40;;
17763;SDS011;22245;52.832;13.816;2022-09-09T13:11:52;5.38;;;1.38;;
17763;SDS011;22245;52.832;13.816;2022-09-09T13:15:21;2.65;;;1.40;;
17763;SDS011;22245;52.832;13.816;2022-09-09T13:18:46;4.47;;;1.20;;
17763;SDS011;22245;52.832;13.816;2022-09-09T13:22:12;3.90;;;1.42;;
17763;SDS011;22245;52.832;13.816;2022-09-09T13:25:36;2.90;;;1.27;;
17763;SDS011;22245;52.832;13.816;2022-09-09T13:29:14;3.55;;;0.95;;
17763;SDS011;22245;52.832;13.816;2022-09-09T13:32:42;4.05;;;1.30;;
17763;SDS011;22245;52.832;13.816;2022-09-09T13:36:05;8.75;;;1.20;;
17763;SDS011;22245;52.832;13.816;2022-09-09T13:39:28;4.22;;;1.13;;
17763;SDS011;22245;52.832;13.816;2022-09-09T13:42:51;3.08;;;1.20;;
17763;SDS011;22245;52.832;13.816;2022-09-09T13:46:24;5.43;;;1.20;;
17763;SDS011;22245;52.832;13.816;2022-09-09T13:49:51;2.15;;;1.10;;
17763;SDS011;22245;52.832;13.816;2022-09-09T13:53:13;1.98;;;1.02;;
17763;SDS011;22245;52.832;13.816;2022-09-09T13:56:35;4.13;;;1.20;;
17763;SDS011;22245;52.832;13.816;2022-09-09T13:59:57;4.07;;;1.23;;
17763;SDS011;22245;52.832;13.816;2022-09-09T14:03:26;3.85;;;1.13;;
17763;SDS011;22245;52.832;13.816;2022-09-09T14:06:49;2.35;;;1.30;;
17763;SDS011;22245;52.832;13.816;2022-09-09T14:10:11;3.35;;;1.40;;
17763;SDS011;22245;52.832;13.816;2022-09-09T14:13:33;2.55;;;1.10;;
17763;SDS011;22245;52.832;13.816;2022-09-09T14:16:57;3.22;;;1.35;;
17763;SDS011;22245;52.832;13.816;2022-09-09T14:20:19;2.72;;;1.20;;
17763;SDS011;22245;52.832;13.816;2022-09-09T14:23:42;2.15;;;1.00;;
17763;SDS011;22245;52.832;13.816;2022-09-09T14:27:04;3.65;;;1.33;;
17763;SDS011;22245;52.832;13.816;2022-09-09T14:30:26;2.75;;;1.42;;
17763;SDS011;22245;52.832;13.816;2022-09-09T14:33:48;2.03;;;1.17;;
17763;SDS011;22245;52.832;13.816;2022-09-09T14:37:10;3.72;;;2.00;;
17763;SDS011;22245;52.832;13.816;2022-09-09T14:40:33;2.25;;;1.33;;
17763;SDS011;22245;52.832;13.816;2022-09-09T14:43:55;2.95;;;1.33;;
17763;SDS011;22245;52.832;13.816;2022-09-09T14:47:17;2.50;;;1.10;;
17763;SDS011;22245;52.832;13.816;2022-09-09T14:50:39;3.20;;;1.40;;
17763;SDS011;22245;52.832;13.816;2022-09-09T14:54:01;3.13;;;1.30;;
17763;SDS011;22245;52.832;13.816;2022-09-09T14:57:25;3.05;;;1.27;;
17763;SDS011;22245;52.832;13.816;2022-09-09T15:00:47;4.00;;;1.75;;
17763;SDS011;22245;52.832;13.816;2022-09-09T15:04:10;5.20;;;1.20;;
17763;SDS011;22245;52.832;13.816;2022-09-09T15:07:34;1.75;;;1.10;;
17763;SDS011;22245;52.832;13.816;2022-09-09T15:10:58;2.15;;;1.30;;
17763;SDS011;22245;52.832;13.816;2022-09-09T15:14:22;4.93;;;1.50;;
17763;SDS011;22245;52.832;13.816;2022-09-09T15:17:46;3.17;;;1.17;;
17763;SDS011;22245;52.832;13.816;2022-09-09T15:21:07;1.83;;;1.13;;
17763;SDS011;22245;52.832;13.816;2022-09-09T15:24:30;4.03;;;1.50;;
17763;SDS011;22245;52.832;13.816;2022-09-09T15:27:53;2.78;;;1.20;;
17763;SDS011;22245;52.832;13.816;2022-09-09T15:31:18;4.85;;;1.52;;
17763;SDS011;22245;52.832;13.816;2022-09-09T15:34:41;4.40;;;1.25;;
17763;SDS011;22245;52.832;13.816;2022-09-09T15:38:03;6.07;;;1.50;;
17763;SDS011;22245;52.832;13.816;2022-09-09T15:41:25;2.83;;;1.60;;
17763;SDS011;22245;52.832;13.816;2022-09-09T15:44:48;3.80;;;1.27;;
17763;SDS011;22245;52.832;13.816;2022-09-09T15:48:11;2.63;;;1.42;;
17763;SDS011;22245;52.832;13.816;2022-09-09T15:51:33;4.50;;;1.38;;
17763;SDS011;22245;52.832;13.816;2022-09-09T15:55:02;3.50;;;1.55;;
17763;SDS011;22245;52.832;13.816;2022-09-09T15:58:25;2.33;;;1.40;;
17763;SDS011;22245;52.832;13.816;2022-09-09T16:01:47;3.67;;;1.55;;
17763;SDS011;22245;52.832;13.816;2022-09-09T16:05:12;3.50;;;1.60;;
17763;SDS011;22245;52.832;13.816;2022-09-09T16:08:35;2.97;;;1.40;;
17763;SDS011;22245;52.832;13.816;2022-09-09T16:11:57;4.35;;;1.70;;
17763;SDS011;22245;52.832;13.816;2022-09-09T16:15:20;5.00;;;1.60;;
17763;SDS011;22245;52.832;13.816;2022-09-09T16:18:44;5.90;;;2.10;;
17763;SDS011;22245;52.832;13.816;2022-09-09T16:22:07;5.70;;;2.10;;
17763;SDS011;22245;52.832;13.816;2022-09-09T16:25:29;5.28;;;1.70;;
17763;SDS011;22245;52.832;13.816;2022-09-09T16:28:51;4.75;;;1.60;;
17763;SDS011;22245;52.832;13.816;2022-09-09T16:32:14;3.22;;;1.60;;
17763;SDS011;22245;52.832;13.816;2022-09-09T16:35:36;5.32;;;2.00;;
17763;SDS011;22245;52.832;13.816;2022-09-09T16:39:00;3.13;;;1.50;;
17763;SDS011;22245;52.832;13.816;2022-09-09T16:42:24;8.55;;;5.05;;
17763;SDS011;22245;52.832;13.816;2022-09-09T16:45:46;6.68;;;3.05;;
17763;SDS011;22245;52.832;13.816;2022-09-09T16:49:08;4.90;;;1.85;;
17763;SDS011;22245;52.832;13.816;2022-09-09T16:52:32;4.65;;;2.80;;
17763;SDS011;22245;52.832;13.816;2022-09-09T16:55:55;4.47;;;1.60;;
17763;SDS011;22245;52.832;13.816;2022-09-09T16:59:17;3.80;;;1.98;;
17763;SDS011;22245;52.832;13.816;2022-09-09T17:02:40;7.82;;;1.63;;
17763;SDS011;22245;52.832;13.816;2022-09-09T17:06:02;2.90;;;1.50;;
17763;SDS011;22245;52.832;13.816;2022-09-09T17:09:24;4.28;;;2.60;;
17763;SDS011;22245;52.832;13.816;2022-09-09T17:12:50;6.78;;;2.20;;
17763;SDS011;22245;52.832;13.816;2022-09-09T17:16:13;5.60;;;1.50;;
17763;SDS011;22245;52.832;13.816;2022-09-09T17:19:37;3.88;;;1.75;;
17763;SDS011;22245;52.832;13.816;2022-09-09T17:22:58;4.95;;;2.00;;
17763;SDS011;22245;52.832;13.816;2022-09-09T17:26:20;4.55;;;2.15;;
17763;SDS011;22245;52.832;13.816;2022-09-09T17:29:45;5.28;;;2.13;;
17763;SDS011;22245;52.832;13.816;2022-09-09T17:33:07;5.60;;;1.90;;
17763;SDS011;22245;52.832;13.816;2022-09-09T17:36:30;5.40;;;1.88;;
17763;SDS011;22245;52.832;13.816;2022-09-09T17:39:54;6.20;;;1.73;;
17763;SDS011;22245;52.832;13.816;2022-09-09T17:43:15;4.20;;;1.60;;
17763;SDS011;22245;52.832;13.816;2022-09-09T17:46:39;6.22;;;2.47;;
17763;SDS011;22245;52.832;13.816;2022-09-09T17:50:02;5.90;;;1.75;;
17763;SDS011;22245;52.832;13.816;2022-09-09T17:53:26;6.47;;;1.92;;
17763;SDS011;22245;52.832;13.816;2022-09-09T17:56:49;3.50;;;1.50;;
17763;SDS011;22245;52.832;13.816;2022-09-09T18:00:11;5.28;;;1.83;;
17763;SDS011;22245;52.832;13.816;2022-09-09T18:03:35;5.07;;;1.80;;
17763;SDS011;22245;52.832;13.816;2022-09-09T18:06:57;4.95;;;2.00;;
17763;SDS011;22245;52.832;13.816;2022-09-09T18:10:19;4.45;;;2.00;;
17763;SDS011;22245;52.832;13.816;2022-09-09T18:13:41;6.07;;;2.03;;
17763;SDS011;22245;52.832;13.816;2022-09-09T18:17:03;6.28;;;2.28;;
17763;SDS011;22245;52.832;13.816;2022-09-09T18:20:27;5.13;;;2.30;;
17763;SDS011;22245;52.832;13.816;2022-09-09T18:23:49;6.03;;;2.10;;
17763;SDS011;22245;52.832;13.816;2022-09-09T18:27:12;5.35;;;2.00;;
17763;SDS011;22245;52.832;13.816;2022-09-09T18:30:37;3.92;;;2.03;;
17763;SDS011;22245;52.832;13.816;2022-09-09T18:34:00;4.22;;;2.10;;
17763;SDS011;22245;52.832;13.816;2022-09-09T18:37:25;4.13;;;1.65;;
17763;SDS011;22245;52.832;13.816;2022-09-09T18:40:47;6.68;;;1.80;;
17763;SDS011;22245;52.832;13.816;2022-09-09T18:44:10;4.40;;;1.73;;
17763;SDS011;22245;52.832;13.816;2022-09-09T18:47:35;7.22;;;1.80;;
17763;SDS011;22245;52.832;13.816;2022-09-09T18:51:00;3.65;;;1.77;;
17763;SDS011;22245;52.832;13.816;2022-09-09T18:54:25;3.88;;;1.70;;
17763;SDS011;22245;52.832;13.816;2022-09-09T18:57:49;4.68;;;1.77;;
17763;SDS011;22245;52.832;13.816;2022-09-09T19:01:13;6.10;;;2.50;;
17763;SDS011;22245;52.832;13.816;2022-09-09T19:04:36;2.95;;;1.58;;
17763;SDS011;22245;52.832;13.816;2022-09-09T19:07:57;4.53;;;1.77;;
17763;SDS011;22245;52.832;13.816;2022-09-09T19:11:21;5.72;;;1.70;;
17763;SDS011;22245;52.832;13.816;2022-09-09T19:14:44;3.92;;;1.65;;
17763;SDS011;22245;52.832;13.816;2022-09-09T19:18:06;9.60;;;1.80;;
17763;SDS011;22245;52.832;13.816;2022-09-09T19:21:28;2.05;;;1.38;;
17763;SDS011;22245;52.832;13.816;2022-09-09T19:24:51;5.35;;;1.80;;
17763;SDS011;22245;52.832;13.816;2022-09-09T19:28:16;4.15;;;1.63;;
17763;SDS011;22245;52.832;13.816;2022-09-09T19:31:37;4.53;;;1.60;;
17763;SDS011;22245;52.832;13.816;2022-09-09T19:35:05;3.33;;;1.48;;
17763;SDS011;22245;52.832;13.816;2022-09-09T19:38:27;2.95;;;1.42;;
17763;SDS011;22245;52.832;13.816;2022-09-09T19:41:49;5.22;;;1.58;;
17763;SDS011;22245;52.832;13.816;2022-09-09T19:45:12;4.55;;;1.70;;
17763;SDS011;22245;52.832;13.816;2022-09-09T19:48:35;4.15;;;1.45;;
17763;SDS011;22245;52.832;13.816;2022-09-09T19:51:58;2.83;;;1.52;;
17763;SDS011;22245;52.832;13.816;2022-09-09T19:55:20;3.72;;;1.70;;
17763;SDS011;22245;52.832;13.816;2022-09-09T19:58:47;5.72;;;2.08;;
17763;SDS011;22245;52.832;13.816;2022-09-09T20:02:12;4.32;;;1.50;;
17763;SDS011;22245;52.832;13.816;2022-09-09T20:05:34;2.70;;;1.55;;
17763;SDS011;22245;52.832;13.816;2022-09-09T20:08:56;2.67;;;1.10;;
17763;SDS011;22245;52.832;13.816;2022-09-09T20:12:18;4.43;;;1.58;;
17763;SDS011;22245;52.832;13.816;2022-09-09T20:15:40;4.57;;;1.40;;
17763;SDS011;22245;52.832;13.816;2022-09-09T20:19:04;4.63;;;1.20;;